createdAt,value
2019-05-29T00:01:21.683Z,85.82
2019-05-29T00:03:49.806Z,85.94
2019-05-29T00:06:18.657Z,85.98
2019-05-29T00:08:47.102Z,86.30
2019-05-29T00:11:15.596Z,86.51
2019-05-29T00:13:44.092Z,86.71
2019-05-29T00:16:12.619Z,86.49
2019-05-29T00:18:41.103Z,86.47
2019-05-29T00:21:11.523Z,86.27
2019-05-29T00:23:39.885Z,86.42
2019-05-29T00:26:08.391Z,86.15
2019-05-29T00:28:36.911Z,85.84
2019-05-29T00:31:05.839Z,85.72
2019-05-29T00:33:34.425Z,85.71
2019-05-29T00:36:02.915Z,84.85
2019-05-29T00:38:31.417Z,84.83
2019-05-29T00:40:59.909Z,84.19
2019-05-29T00:43:28.446Z,83.98
2019-05-29T00:45:56.943Z,84.20
2019-05-29T00:48:25.428Z,84.19
2019-05-29T00:50:53.931Z,84.02
2019-05-29T00:53:22.440Z,83.77
2019-05-29T00:55:50.952Z,83.65
2019-05-29T00:58:19.924Z,83.11
2019-05-29T01:00:48.573Z,83.49
2019-05-29T01:03:17.904Z,83.97
2019-05-29T01:05:46.437Z,84.03
2019-05-29T01:08:14.936Z,84.26
2019-05-29T01:10:43.497Z,84.50
2019-05-29T01:13:13.141Z,84.15
2019-05-29T01:15:41.746Z,84.07
2019-05-29T01:18:11.457Z,84.13
2019-05-29T01:20:40.227Z,84.36
2019-05-29T01:23:08.706Z,84.58
2019-05-29T01:25:37.216Z,84.94
2019-05-29T01:28:05.771Z,85.00
2019-05-29T01:30:34.283Z,85.00
2019-05-29T01:33:02.811Z,85.23
2019-05-29T01:35:31.323Z,85.03
2019-05-29T01:37:59.811Z,85.32
2019-05-29T01:40:29.728Z,85.18
2019-05-29T01:42:58.318Z,84.79
2019-05-29T01:45:27.680Z,83.93
2019-05-29T01:47:56.208Z,83.74
2019-05-29T01:50:24.718Z,84.13
2019-05-29T01:52:53.208Z,84.36
2019-05-29T01:55:21.765Z,84.55
2019-05-29T01:57:50.304Z,84.89
2019-05-29T02:00:20.141Z,85.33
2019-05-29T02:02:48.721Z,85.30
2019-05-29T02:05:17.849Z,85.53
2019-05-29T02:07:46.382Z,85.88
2019-05-29T02:10:16.003Z,85.38
2019-05-29T02:12:44.514Z,84.84
2019-05-29T02:15:24.821Z,84.75
2019-05-29T02:17:44.018Z,84.14
2019-05-29T02:20:12.752Z,83.71
2019-05-29T02:22:41.257Z,83.40
2019-05-29T02:25:09.995Z,83.38
2019-05-29T02:27:38.478Z,83.50
2019-05-29T02:30:08.364Z,83.96
2019-05-29T02:32:37.077Z,83.75
2019-05-29T02:35:06.705Z,83.71
2019-05-29T02:37:35.247Z,84.23
2019-05-29T02:40:05.071Z,84.88
2019-05-29T02:42:33.659Z,85.10
2019-05-29T02:45:02.498Z,85.30
2019-05-29T02:47:30.998Z,85.39
2019-05-29T02:49:59.528Z,85.57
2019-05-29T02:52:28.697Z,85.79
2019-05-29T02:54:58.336Z,86.11
2019-05-29T02:57:27.115Z,86.36
2019-05-29T02:59:55.596Z,86.74
2019-05-29T03:02:25.532Z,86.56
2019-05-29T03:04:54.160Z,86.21
2019-05-29T03:07:24.317Z,85.93
2019-05-29T03:09:52.858Z,86.07
2019-05-29T03:12:22.782Z,86.07
2019-05-29T03:14:51.332Z,86.17
2019-05-29T03:17:19.835Z,86.24
2019-05-29T03:19:48.424Z,86.27
2019-05-29T03:22:16.926Z,86.09
2019-05-29T03:24:45.422Z,86.10
2019-05-29T03:27:13.914Z,86.02
2019-05-29T03:29:42.399Z,86.02
2019-05-29T03:32:14.136Z,85.90
2019-05-29T03:34:46.388Z,86.15
2019-05-29T03:37:11.371Z,86.14
2019-05-29T03:39:39.872Z,86.33
2019-05-29T03:42:08.379Z,86.36
2019-05-29T03:44:36.944Z,86.20
2019-05-29T03:47:06.241Z,86.36
2019-05-29T03:49:35.210Z,86.27
2019-05-29T03:52:04.192Z,86.39
2019-05-29T03:54:34.932Z,86.69
2019-05-29T03:57:02.941Z,86.57
2019-05-29T03:59:32.700Z,86.69
2019-05-29T04:02:01.301Z,86.71
2019-05-29T04:04:31.379Z,86.84
2019-05-29T04:07:00.017Z,87.26
2019-05-29T04:09:29.205Z,87.40
2019-05-29T04:11:58.069Z,87.51
2019-05-29T04:14:27.554Z,87.91
2019-05-29T04:17:00.288Z,88.13
2019-05-29T04:19:30.540Z,88.26
2019-05-29T04:22:03.270Z,88.29
2019-05-29T04:24:34.010Z,88.56
2019-05-29T04:27:04.118Z,88.91
2019-05-29T04:29:34.195Z,89.10
2019-05-29T04:32:02.776Z,88.26
2019-05-29T04:34:32.251Z,88.57
2019-05-29T04:37:01.501Z,88.60
2019-05-29T04:39:30.624Z,88.86
2019-05-29T04:41:59.176Z,88.87
2019-05-29T04:44:28.831Z,89.09
2019-05-29T04:47:10.340Z,88.63
2019-05-29T04:49:29.272Z,88.71
2019-05-29T04:51:57.811Z,89.01
2019-05-29T04:54:26.291Z,89.09
2019-05-29T04:56:54.746Z,88.87
2019-05-29T04:59:23.253Z,88.82
2019-05-29T05:01:51.725Z,88.77
2019-05-29T05:04:20.248Z,88.52
2019-05-29T05:06:48.761Z,88.64
2019-05-29T05:09:17.322Z,88.15
2019-05-29T05:11:45.782Z,87.04
2019-05-29T05:14:14.368Z,86.24
2019-05-29T05:16:42.934Z,86.66
2019-05-29T05:19:11.401Z,87.15
2019-05-29T05:21:40.320Z,87.49
2019-05-29T05:24:08.933Z,87.74
2019-05-29T05:26:38.419Z,87.93
2019-05-29T05:29:07.050Z,87.43
2019-05-29T05:31:36.484Z,87.29
2019-05-29T05:34:05.199Z,87.28
2019-05-29T05:36:34.675Z,87.19
2019-05-29T05:39:03.640Z,87.22
2019-05-29T05:41:32.721Z,87.39
2019-05-29T05:44:01.284Z,87.36
2019-05-29T05:46:30.930Z,86.97
2019-05-29T05:48:59.483Z,87.29
2019-05-29T05:51:27.936Z,87.08
2019-05-29T05:53:56.440Z,87.04
2019-05-29T05:56:24.946Z,86.67
2019-05-29T05:58:53.439Z,86.38
2019-05-29T06:01:21.911Z,86.79
2019-05-29T06:03:50.564Z,85.92
2019-05-29T06:06:19.294Z,86.04
2019-05-29T06:08:47.776Z,86.45
2019-05-29T06:11:16.287Z,86.71
2019-05-29T06:13:44.749Z,86.58
2019-05-29T06:16:13.307Z,87.09
2019-05-29T06:18:43.022Z,87.51
2019-05-29T06:21:11.779Z,88.02
2019-05-29T06:23:41.136Z,87.91
2019-05-29T06:26:09.631Z,87.95
2019-05-29T06:28:39.146Z,87.95
2019-05-29T06:31:07.607Z,88.08
2019-05-29T06:33:37.286Z,87.34
2019-05-29T06:36:05.930Z,86.69
2019-05-29T06:38:35.590Z,86.75
2019-05-29T06:41:04.203Z,86.77
2019-05-29T06:43:33.786Z,86.87
2019-05-29T06:46:02.327Z,86.56
2019-05-29T06:48:42.472Z,87.01
2019-05-29T06:51:01.312Z,87.00
2019-05-29T06:53:29.885Z,86.94
2019-05-29T06:55:59.414Z,87.39
2019-05-29T06:58:28.689Z,86.63
2019-05-29T07:00:57.202Z,86.54
2019-05-29T07:03:25.676Z,86.11
2019-05-29T07:05:54.227Z,85.64
2019-05-29T07:08:37.697Z,85.44
2019-05-29T07:10:52.947Z,85.08
2019-05-29T07:13:21.438Z,84.36
2019-05-29T07:15:49.987Z,84.26
2019-05-29T07:18:18.449Z,84.30
2019-05-29T07:20:47.091Z,84.66
2019-05-29T07:23:15.517Z,84.82
2019-05-29T07:25:45.487Z,85.18
2019-05-29T07:28:14.201Z,84.86
2019-05-29T07:30:48.307Z,84.95
2019-05-29T07:33:12.983Z,85.44
2019-05-29T07:35:41.479Z,85.88
2019-05-29T07:38:09.957Z,86.20
2019-05-29T07:40:39.087Z,86.48
2019-05-29T07:43:08.654Z,86.56
2019-05-29T07:45:37.822Z,87.06
2019-05-29T07:48:06.467Z,87.10
2019-05-29T07:50:35.043Z,86.60
2019-05-29T07:53:03.594Z,86.93
2019-05-29T07:55:32.147Z,86.80
2019-05-29T07:58:00.634Z,85.14
2019-05-29T08:00:35.871Z,85.41
2019-05-29T08:02:59.402Z,84.51
2019-05-29T08:05:27.958Z,84.63
2019-05-29T08:07:56.497Z,84.32
2019-05-29T08:10:25.128Z,84.62
2019-05-29T08:12:55.778Z,85.20
2019-05-29T08:15:23.976Z,85.34
2019-05-29T08:17:52.487Z,84.44
2019-05-29T08:20:21.059Z,84.00
2019-05-29T08:22:50.537Z,84.68
2019-05-29T08:25:19.587Z,83.93
2019-05-29T08:27:48.918Z,84.19
2019-05-29T08:30:19.244Z,83.87
2019-05-29T08:32:49.104Z,83.97
2019-05-29T08:35:17.814Z,83.95
2019-05-29T08:37:47.020Z,82.88
2019-05-29T08:40:15.899Z,83.10
2019-05-29T08:42:45.228Z,83.20
2019-05-29T08:45:14.023Z,83.37
2019-05-29T08:47:43.501Z,82.25
2019-05-29T08:50:18.605Z,82.32
2019-05-29T08:52:43.833Z,82.80
2019-05-29T08:55:13.868Z,81.80
2019-05-29T08:57:42.667Z,81.91
2019-05-29T09:00:13.043Z,80.06
2019-05-29T09:02:42.550Z,79.09
2019-05-29T09:05:11.579Z,79.53
2019-05-29T09:07:40.082Z,79.54
2019-05-29T09:10:09.183Z,79.68
2019-05-29T09:12:37.784Z,78.11
2019-05-29T09:15:09.200Z,77.50
2019-05-29T09:17:38.029Z,78.27
2019-05-29T09:20:07.542Z,78.52
2019-05-29T09:22:36.213Z,78.62
2019-05-29T09:25:07.428Z,76.25
2019-05-29T09:27:35.935Z,76.74
2019-05-29T09:30:05.961Z,75.59
2019-05-29T09:32:49.513Z,75.11
2019-05-29T09:35:05.588Z,74.98
2019-05-29T09:37:34.065Z,75.34
2019-05-29T09:40:02.688Z,73.47
2019-05-29T09:42:31.182Z,72.94
2019-05-29T09:44:59.658Z,72.35
2019-05-29T09:47:28.160Z,72.74
2019-05-29T09:49:56.629Z,72.77
2019-05-29T09:52:25.118Z,73.26
2019-05-29T09:54:54.676Z,73.43
2019-05-29T09:57:24.049Z,73.63
2019-05-29T09:59:53.990Z,74.29
2019-05-29T10:02:22.862Z,75.94
2019-05-29T10:04:51.383Z,76.62
2019-05-29T10:07:21.490Z,78.28
2019-05-29T10:09:50.052Z,78.68
2019-05-29T10:12:18.724Z,78.66
2019-05-29T10:14:50.628Z,78.44
2019-05-29T10:17:17.599Z,79.38
2019-05-29T10:19:46.088Z,78.17
2019-05-29T10:22:14.579Z,79.18
2019-05-29T10:24:43.086Z,79.34
2019-05-29T10:27:11.682Z,78.67
2019-05-29T10:29:40.235Z,78.93
2019-05-29T10:32:08.748Z,79.69
2019-05-29T10:34:37.262Z,78.67
2019-05-29T10:37:05.817Z,79.16
2019-05-29T10:39:34.340Z,78.87
2019-05-29T10:42:02.854Z,77.99
2019-05-29T10:44:31.494Z,76.80
2019-05-29T10:46:59.993Z,76.80
2019-05-29T10:49:28.625Z,77.19
2019-05-29T10:52:11.999Z,77.02
2019-05-29T10:54:27.338Z,76.97
2019-05-29T10:56:55.858Z,77.26
2019-05-29T10:59:24.334Z,77.12
2019-05-29T11:01:53.774Z,75.78
2019-05-29T11:04:22.439Z,75.36
2019-05-29T11:06:52.459Z,76.73
2019-05-29T11:09:21.359Z,75.58
2019-05-29T11:11:50.671Z,76.10
2019-05-29T11:14:19.323Z,76.17
2019-05-29T11:16:49.050Z,75.22
2019-05-29T11:19:17.602Z,74.94
2019-05-29T11:21:47.971Z,73.71
2019-05-29T11:24:16.304Z,73.58
2019-05-29T11:26:44.784Z,73.89
2019-05-29T11:29:13.275Z,73.53
2019-05-29T11:31:41.799Z,71.22
2019-05-29T11:34:10.282Z,71.09
2019-05-29T11:36:38.957Z,72.29
2019-05-29T11:39:09.248Z,70.92
2019-05-29T11:41:38.145Z,70.30
2019-05-29T11:44:06.707Z,67.66
2019-05-29T11:46:35.419Z,68.53
2019-05-29T11:49:03.985Z,67.52
2019-05-29T11:51:32.472Z,69.64
2019-05-29T11:54:02.455Z,69.86
2019-05-29T11:56:31.151Z,69.92
2019-05-29T11:58:59.736Z,70.55
2019-05-29T12:01:28.300Z,70.23
2019-05-29T12:04:18.160Z,68.08
2019-05-29T12:06:27.034Z,67.86
2019-05-29T12:08:55.813Z,68.07
2019-05-29T12:11:24.416Z,69.70
2019-05-29T12:13:54.170Z,70.91
2019-05-29T12:16:22.888Z,69.59
2019-05-29T12:18:51.569Z,70.75
2019-05-29T12:21:20.116Z,71.46
2019-05-29T12:23:48.594Z,72.31
2019-05-29T12:26:22.652Z,71.42
2019-05-29T12:28:47.335Z,69.88
2019-05-29T12:31:15.848Z,68.89
2019-05-29T12:33:44.516Z,68.52
2019-05-29T12:36:13.007Z,68.47
2019-05-29T12:38:41.484Z,65.66
2019-05-29T12:41:10.005Z,66.31
2019-05-29T12:43:38.764Z,67.69
2019-05-29T12:46:07.419Z,67.70
2019-05-29T12:48:35.906Z,68.06
2019-05-29T12:51:04.531Z,68.02
2019-05-29T12:53:33.063Z,66.43
2019-05-29T12:56:02.565Z,66.63
2019-05-29T12:58:31.077Z,65.42
2019-05-29T13:01:00.694Z,65.34
2019-05-29T13:03:29.342Z,65.91
2019-05-29T13:05:58.198Z,65.20
2019-05-29T13:08:27.011Z,64.14
2019-05-29T13:10:56.203Z,63.57
2019-05-29T13:13:24.744Z,62.74
2019-05-29T13:15:54.595Z,62.26
2019-05-29T13:18:23.206Z,62.09
2019-05-29T13:20:51.723Z,62.23
2019-05-29T13:23:20.177Z,62.18
2019-05-29T13:25:48.671Z,61.90
2019-05-29T13:28:17.197Z,63.59
2019-05-29T13:30:45.686Z,63.55
2019-05-29T13:33:14.206Z,62.59
2019-05-29T13:35:42.682Z,63.38
2019-05-29T13:38:11.154Z,64.03
2019-05-29T13:40:39.749Z,63.35
2019-05-29T13:43:14.984Z,64.27
2019-05-29T13:45:38.530Z,63.87
2019-05-29T13:48:07.476Z,64.67
2019-05-29T13:50:36.123Z,63.56
2019-05-29T13:53:05.472Z,64.12
2019-05-29T13:55:34.108Z,63.84
2019-05-29T13:58:03.806Z,63.83
2019-05-29T14:00:34.705Z,62.27
2019-05-29T14:03:04.600Z,62.48
2019-05-29T14:05:33.455Z,63.32
2019-05-29T14:08:02.770Z,63.70
2019-05-29T14:10:31.454Z,62.83
2019-05-29T14:13:00.936Z,62.75
2019-05-29T14:15:29.625Z,62.27
2019-05-29T14:17:58.220Z,62.50
2019-05-29T14:20:26.671Z,64.03
2019-05-29T14:22:55.176Z,62.82
2019-05-29T14:25:23.872Z,62.55
2019-05-29T14:27:52.364Z,62.40
2019-05-29T14:30:21.216Z,63.79
2019-05-29T14:32:49.721Z,62.68
2019-05-29T14:35:18.421Z,62.16
2019-05-29T14:37:46.968Z,63.90
2019-05-29T14:40:17.207Z,63.44
2019-05-29T14:42:45.783Z,62.12
2019-05-29T14:45:14.633Z,62.79
2019-05-29T14:47:43.123Z,63.92
2019-05-29T14:50:13.577Z,63.87
2019-05-29T14:52:42.043Z,63.41
2019-05-29T14:55:16.113Z,64.26
2019-05-29T14:57:41.399Z,64.63
2019-05-29T15:00:24.343Z,64.46
2019-05-29T15:02:44.824Z,64.29
2019-05-29T15:05:14.965Z,64.82
2019-05-29T15:07:43.792Z,64.99
2019-05-29T15:10:24.969Z,64.62
2019-05-29T15:12:42.968Z,64.97
2019-05-29T15:15:14.265Z,64.89
2019-05-29T15:17:42.125Z,63.91
2019-05-29T15:20:12.593Z,63.68
2019-05-29T15:22:41.761Z,64.08
2019-05-29T15:25:18.434Z,63.56
2019-05-29T15:27:40.922Z,63.70
2019-05-29T15:30:11.855Z,64.26
2019-05-29T15:32:40.903Z,64.95
2019-05-29T15:35:13.816Z,65.09
2019-05-29T15:37:40.119Z,65.28
2019-05-29T15:40:11.024Z,65.48
2019-05-29T15:42:39.526Z,66.12
2019-05-29T15:45:09.881Z,66.80
2019-05-29T15:47:38.485Z,66.73
2019-05-29T15:50:09.157Z,66.79
2019-05-29T15:52:37.886Z,66.59
2019-05-29T15:55:22.457Z,66.92
2019-05-29T15:57:38.978Z,67.36
2019-05-29T16:00:15.654Z,67.34
2019-05-29T16:02:48.327Z,67.73
2019-05-29T16:05:15.498Z,67.35
2019-05-29T16:07:44.336Z,67.17
2019-05-29T16:10:18.600Z,67.10
2019-05-29T16:12:45.823Z,66.75
2019-05-29T16:15:15.480Z,66.73
2019-05-29T16:17:44.038Z,66.92
2019-05-29T16:20:12.649Z,67.15
2019-05-29T16:22:41.280Z,67.35
2019-05-29T16:25:10.926Z,67.89
2019-05-29T16:27:39.413Z,68.65
2019-05-29T16:30:13.452Z,69.00
2019-05-29T16:32:42.200Z,69.14
2019-05-29T16:35:11.136Z,69.94
2019-05-29T16:37:39.564Z,70.98
2019-05-29T16:40:16.068Z,71.52
2019-05-29T16:42:44.825Z,71.80
2019-05-29T16:45:14.356Z,72.55
2019-05-29T16:47:42.861Z,72.81
2019-05-29T16:50:13.110Z,73.11
2019-05-29T16:52:41.600Z,73.19
2019-05-29T16:55:10.791Z,73.29
2019-05-29T16:57:39.446Z,73.58
2019-05-29T17:00:13.567Z,73.67
2019-05-29T17:02:42.441Z,74.15
2019-05-29T17:05:11.309Z,74.88
2019-05-29T17:07:39.786Z,74.63
2019-05-29T17:10:09.221Z,75.34
2019-05-29T17:12:37.740Z,75.56
2019-05-29T17:15:09.572Z,76.08
2019-05-29T17:17:38.118Z,76.40
2019-05-29T17:20:10.323Z,76.73
2019-05-29T17:22:38.912Z,75.60
2019-05-29T17:25:08.064Z,75.44
2019-05-29T17:27:36.649Z,76.25
2019-05-29T17:30:07.669Z,75.94
2019-05-29T17:32:36.258Z,77.00
2019-05-29T17:35:06.959Z,76.83
2019-05-29T17:37:35.535Z,77.33
2019-05-29T17:40:06.619Z,77.43
2019-05-29T17:42:35.132Z,76.89
2019-05-29T17:45:05.078Z,77.83
2019-05-29T17:47:33.556Z,78.30
2019-05-29T17:50:02.149Z,78.12
2019-05-29T17:52:30.661Z,78.69
2019-05-29T17:54:59.140Z,78.65
2019-05-29T17:57:27.621Z,78.63
2019-05-29T17:59:56.117Z,78.57
2019-05-29T18:02:24.726Z,78.68
2019-05-29T18:04:53.239Z,79.11
2019-05-29T18:07:22.649Z,79.38
2019-05-29T18:09:51.241Z,79.73
2019-05-29T18:12:20.860Z,79.48
2019-05-29T18:14:49.449Z,79.21
2019-05-29T18:17:17.952Z,79.09
2019-05-29T18:19:47.019Z,78.99
2019-05-29T18:22:15.515Z,78.72
2019-05-29T18:24:44.002Z,78.21
2019-05-29T18:27:12.595Z,78.09
2019-05-29T18:29:41.096Z,78.37
2019-05-29T18:32:09.596Z,78.13
2019-05-29T18:34:38.114Z,77.91
2019-05-29T18:37:06.685Z,77.57
2019-05-29T18:39:35.303Z,77.86
2019-05-29T18:42:03.790Z,78.38
2019-05-29T18:44:33.071Z,78.16
2019-05-29T18:47:01.538Z,78.17
2019-05-29T18:49:30.019Z,78.63
2019-05-29T18:52:00.429Z,79.30
2019-05-29T18:54:29.898Z,79.08
2019-05-29T18:57:14.648Z,79.76
2019-05-29T18:59:29.591Z,79.70
2019-05-29T19:01:58.154Z,79.77
2019-05-29T19:04:27.621Z,79.79
2019-05-29T19:06:56.179Z,80.20
2019-05-29T19:09:25.660Z,80.17
2019-05-29T19:11:54.119Z,80.36
2019-05-29T19:14:23.930Z,80.55
2019-05-29T19:16:52.454Z,80.82
2019-05-29T19:19:22.056Z,80.78
2019-05-29T19:21:50.607Z,80.44
2019-05-29T19:24:19.161Z,80.89
2019-05-29T19:26:47.657Z,81.04
2019-05-29T19:29:16.223Z,81.17
2019-05-29T19:31:44.852Z,81.01
2019-05-29T19:34:13.429Z,81.04
2019-05-29T19:36:41.921Z,80.88
2019-05-29T19:39:10.494Z,80.39
2019-05-29T19:41:38.988Z,80.50
2019-05-29T19:44:07.613Z,80.41
2019-05-29T19:46:52.559Z,80.52
2019-05-29T19:49:06.476Z,80.58
2019-05-29T19:51:35.447Z,80.51
2019-05-29T19:54:04.025Z,80.76
2019-05-29T19:56:32.530Z,81.00
2019-05-29T19:59:01.016Z,81.40
2019-05-29T20:01:34.136Z,81.43
2019-05-29T20:03:59.733Z,81.34
2019-05-29T20:06:28.861Z,81.49
2019-05-29T20:08:57.522Z,81.45
2019-05-29T20:11:27.567Z,81.43
2019-05-29T20:13:56.174Z,81.37
2019-05-29T20:16:24.692Z,81.05
2019-05-29T20:18:53.558Z,81.31
2019-05-29T20:21:22.069Z,81.51
2019-05-29T20:23:50.564Z,81.61
2019-05-29T20:26:19.061Z,81.62
2019-05-29T20:28:47.562Z,81.81
2019-05-29T20:31:16.089Z,81.89
2019-05-29T20:33:44.590Z,81.83
2019-05-29T20:36:13.071Z,81.74
2019-05-29T20:38:41.572Z,81.88
2019-05-29T20:41:10.094Z,82.00
2019-05-29T20:43:39.760Z,82.26
2019-05-29T20:46:08.344Z,82.19
2019-05-29T20:48:36.859Z,82.37
2019-05-29T20:51:05.506Z,82.41
2019-05-29T20:53:35.273Z,82.43
2019-05-29T20:56:03.865Z,82.53
2019-05-29T20:58:33.684Z,82.33
2019-05-29T21:01:03.284Z,82.42
2019-05-29T21:03:32.333Z,82.55
2019-05-29T21:06:00.794Z,82.70
2019-05-29T21:08:29.354Z,82.81
2019-05-29T21:10:57.869Z,83.31
2019-05-29T21:13:26.464Z,83.68
2019-05-29T21:15:54.975Z,83.95
2019-05-29T21:18:23.498Z,84.18
2019-05-29T21:20:52.004Z,84.43
2019-05-29T21:23:20.497Z,85.11
2019-05-29T21:25:48.998Z,85.24
2019-05-29T21:28:17.506Z,85.72
2019-05-29T21:30:46.084Z,86.63
2019-05-29T21:33:14.592Z,86.92
2019-05-29T21:35:44.267Z,86.67
2019-05-29T21:38:12.766Z,86.78
2019-05-29T21:40:42.443Z,86.81
2019-05-29T21:43:11.048Z,86.95
2019-05-29T21:45:40.954Z,87.28
2019-05-29T21:48:09.559Z,87.10
2019-05-29T21:50:39.103Z,86.84
2019-05-29T21:53:07.764Z,86.85
2019-05-29T21:55:37.490Z,87.26
2019-05-29T21:58:06.191Z,87.69
2019-05-29T22:00:44.419Z,87.98
2019-05-29T22:03:13.051Z,88.03
2019-05-29T22:05:42.712Z,88.72
2019-05-29T22:08:11.353Z,89.34
2019-05-29T22:10:40.000Z,89.19
2019-05-29T22:13:08.527Z,89.06
2019-05-29T22:15:37.104Z,89.01
2019-05-29T22:18:06.047Z,88.96
2019-05-29T22:20:34.630Z,88.67
2019-05-29T22:23:03.166Z,88.50
2019-05-29T22:25:34.416Z,88.47
2019-05-29T22:28:01.989Z,88.64
2019-05-29T22:30:30.639Z,88.86
2019-05-29T22:32:59.578Z,88.62
2019-05-29T22:35:28.194Z,88.29
2019-05-29T22:37:57.725Z,87.58
2019-05-29T22:40:26.398Z,87.63
2019-05-29T22:42:55.577Z,87.45
2019-05-29T22:45:24.228Z,87.62
2019-05-29T22:47:53.699Z,87.58
2019-05-29T22:50:22.394Z,87.53
2019-05-29T22:52:51.783Z,87.42
2019-05-29T22:55:20.325Z,87.77
2019-05-29T22:57:48.843Z,88.04
2019-05-29T23:00:18.528Z,88.24
2019-05-29T23:02:47.031Z,88.36
2019-05-29T23:05:15.866Z,88.52
2019-05-29T23:07:44.332Z,88.77
2019-05-29T23:10:13.193Z,88.83
2019-05-29T23:12:41.671Z,88.88
2019-05-29T23:15:10.405Z,88.89
2019-05-29T23:17:38.910Z,88.75
2019-05-29T23:20:07.944Z,88.33
2019-05-29T23:22:36.546Z,88.47
2019-05-29T23:25:06.221Z,88.64
2019-05-29T23:27:35.547Z,88.79
2019-05-29T23:30:06.569Z,89.02
2019-05-29T23:32:35.149Z,89.31
2019-05-29T23:35:04.215Z,89.71
2019-05-29T23:37:32.718Z,89.69
2019-05-29T23:40:01.357Z,89.48
2019-05-29T23:42:29.869Z,89.53
2019-05-29T23:44:59.429Z,89.76
2019-05-29T23:47:27.940Z,89.90
2019-05-29T23:49:57.551Z,90.08
2019-05-29T23:52:26.079Z,90.11
2019-05-29T23:54:55.696Z,90.20
2019-05-29T23:57:24.242Z,90.44
